sensor_id;sensor_type;location;lat;lon;timestamp;P1;durP1;ratioP1;P2;durP2;ratioP2
42124;SDS011;27787;44.594;11.046;2023-02-22T00:01:28;87.68;;;37.17;;
42124;SDS011;27787;44.594;11.046;2023-02-22T00:04:18;80.97;;;34.65;;
42124;SDS011;27787;44.594;11.046;2023-02-22T00:07:04;95.22;;;37.13;;
42124;SDS011;27787;44.594;11.046;2023-02-22T00:09:49;101.65;;;37.85;;
42124;SDS011;27787;44.594;11.046;2023-02-22T00:12:33;92.25;;;39.40;;
42124;SDS011;27787;44.594;11.046;2023-02-22T00:15:18;89.85;;;38.13;;
42124;SDS011;27787;44.594;11.046;2023-02-22T00:18:04;95.35;;;38.67;;
42124;SDS011;27787;44.594;11.046;2023-02-22T00:20:49;99.60;;;38.92;;
42124;SDS011;27787;44.594;11.046;2023-02-22T00:23:34;98.65;;;40.78;;
42124;SDS011;27787;44.594;11.046;2023-02-22T00:26:19;98.40;;;41.60;;
42124;SDS011;27787;44.594;11.046;2023-02-22T00:29:06;102.65;;;42.08;;
42124;SDS011;27787;44.594;11.046;2023-02-22T00:31:51;98.40;;;42.83;;
42124;SDS011;27787;44.594;11.046;2023-02-22T00:34:36;105.28;;;41.97;;
42124;SDS011;27787;44.594;11.046;2023-02-22T00:37:21;112.32;;;45.78;;
42124;SDS011;27787;44.594;11.046;2023-02-22T00:40:05;116.68;;;45.63;;
42124;SDS011;27787;44.594;11.046;2023-02-22T00:42:51;106.07;;;44.97;;
42124;SDS011;27787;44.594;11.046;2023-02-22T00:45:36;115.13;;;46.23;;
42124;SDS011;27787;44.594;11.046;2023-02-22T00:48:20;112.30;;;45.60;;
42124;SDS011;27787;44.594;11.046;2023-02-22T00:51:04;117.60;;;47.47;;
42124;SDS011;27787;44.594;11.046;2023-02-22T00:53:49;121.85;;;47.55;;
42124;SDS011;27787;44.594;11.046;2023-02-22T00:56:33;113.32;;;47.40;;
42124;SDS011;27787;44.594;11.046;2023-02-22T00:59:17;111.72;;;46.65;;
42124;SDS011;27787;44.594;11.046;2023-02-22T01:02:02;106.25;;;45.08;;
42124;SDS011;27787;44.594;11.046;2023-02-22T01:04:47;111.63;;;47.07;;
42124;SDS011;27787;44.594;11.046;2023-02-22T01:07:31;110.60;;;45.95;;
42124;SDS011;27787;44.594;11.046;2023-02-22T01:10:16;113.13;;;46.22;;
42124;SDS011;27787;44.594;11.046;2023-02-22T01:13:02;111.85;;;45.28;;
42124;SDS011;27787;44.594;11.046;2023-02-22T01:15:50;116.10;;;46.72;;
42124;SDS011;27787;44.594;11.046;2023-02-22T01:18:35;115.20;;;44.53;;
42124;SDS011;27787;44.594;11.046;2023-02-22T01:21:19;107.18;;;44.83;;
42124;SDS011;27787;44.594;11.046;2023-02-22T01:24:03;109.22;;;46.40;;
42124;SDS011;27787;44.594;11.046;2023-02-22T01:26:48;108.10;;;45.72;;
42124;SDS011;27787;44.594;11.046;2023-02-22T01:29:34;101.38;;;44.47;;
42124;SDS011;27787;44.594;11.046;2023-02-22T01:32:17;114.57;;;47.00;;
42124;SDS011;27787;44.594;11.046;2023-02-22T01:35:07;107.22;;;45.60;;
42124;SDS011;27787;44.594;11.046;2023-02-22T01:37:56;114.75;;;44.63;;
42124;SDS011;27787;44.594;11.046;2023-02-22T01:40:45;114.13;;;45.97;;
42124;SDS011;27787;44.594;11.046;2023-02-22T01:43:31;109.60;;;44.78;;
42124;SDS011;27787;44.594;11.046;2023-02-22T01:49:06;112.65;;;43.95;;
42124;SDS011;27787;44.594;11.046;2023-02-22T01:51:53;107.05;;;42.20;;
42124;SDS011;27787;44.594;11.046;2023-02-22T01:54:41;103.53;;;43.17;;
42124;SDS011;27787;44.594;11.046;2023-02-22T01:57:32;110.00;;;43.95;;
42124;SDS011;27787;44.594;11.046;2023-02-22T02:00:20;116.10;;;44.25;;
42124;SDS011;27787;44.594;11.046;2023-02-22T02:03:06;102.65;;;42.40;;
42124;SDS011;27787;44.594;11.046;2023-02-22T02:05:55;94.55;;;41.35;;
42124;SDS011;27787;44.594;11.046;2023-02-22T02:08:49;98.75;;;43.13;;
42124;SDS011;27787;44.594;11.046;2023-02-22T02:11:41;110.28;;;45.20;;
42124;SDS011;27787;44.594;11.046;2023-02-22T02:14:25;106.20;;;44.20;;
42124;SDS011;27787;44.594;11.046;2023-02-22T02:17:14;102.05;;;41.70;;
42124;SDS011;27787;44.594;11.046;2023-02-22T02:20:06;108.10;;;44.13;;
42124;SDS011;27787;44.594;11.046;2023-02-22T02:36:04;111.95;;;43.42;;
42124;SDS011;27787;44.594;11.046;2023-02-22T02:42:13;116.07;;;45.17;;
42124;SDS011;27787;44.594;11.046;2023-02-22T02:45:04;103.88;;;44.80;;
42124;SDS011;27787;44.594;11.046;2023-02-22T02:47:53;107.00;;;44.50;;
42124;SDS011;27787;44.594;11.046;2023-02-22T02:50:46;114.57;;;45.30;;
42124;SDS011;27787;44.594;11.046;2023-02-22T02:53:33;105.40;;;44.70;;
42124;SDS011;27787;44.594;11.046;2023-02-22T02:56:21;116.78;;;47.83;;
42124;SDS011;27787;44.594;11.046;2023-02-22T03:08:42;116.88;;;45.88;;
42124;SDS011;27787;44.594;11.046;2023-02-22T03:11:39;120.85;;;45.30;;
42124;SDS011;27787;44.594;11.046;2023-02-22T03:14:40;116.30;;;44.72;;
42124;SDS011;27787;44.594;11.046;2023-02-22T03:26:44;112.10;;;44.13;;
42124;SDS011;27787;44.594;11.046;2023-02-22T03:29:38;109.00;;;42.72;;
42124;SDS011;27787;44.594;11.046;2023-02-22T03:32:29;118.18;;;45.17;;
42124;SDS011;27787;44.594;11.046;2023-02-22T03:35:19;105.05;;;42.58;;
42124;SDS011;27787;44.594;11.046;2023-02-22T03:38:08;111.25;;;45.35;;
42124;SDS011;27787;44.594;11.046;2023-02-22T03:40:58;102.63;;;43.58;;
42124;SDS011;27787;44.594;11.046;2023-02-22T03:43:45;112.97;;;44.88;;
42124;SDS011;27787;44.594;11.046;2023-02-22T03:46:33;111.75;;;43.20;;
42124;SDS011;27787;44.594;11.046;2023-02-22T03:49:31;107.30;;;43.22;;
42124;SDS011;27787;44.594;11.046;2023-02-22T03:52:20;116.15;;;47.88;;
42124;SDS011;27787;44.594;11.046;2023-02-22T03:55:06;103.70;;;45.03;;
42124;SDS011;27787;44.594;11.046;2023-02-22T03:57:55;118.43;;;46.38;;
42124;SDS011;27787;44.594;11.046;2023-02-22T04:00:42;106.63;;;45.47;;
42124;SDS011;27787;44.594;11.046;2023-02-22T04:03:27;114.47;;;44.53;;
42124;SDS011;27787;44.594;11.046;2023-02-22T04:06:12;106.35;;;44.85;;
42124;SDS011;27787;44.594;11.046;2023-02-22T04:08:57;102.65;;;43.88;;
42124;SDS011;27787;44.594;11.046;2023-02-22T04:11:41;109.32;;;45.10;;
42124;SDS011;27787;44.594;11.046;2023-02-22T04:14:26;113.53;;;43.73;;
42124;SDS011;27787;44.594;11.046;2023-02-22T04:17:11;116.97;;;46.20;;
42124;SDS011;27787;44.594;11.046;2023-02-22T04:19:55;114.18;;;46.17;;
42124;SDS011;27787;44.594;11.046;2023-02-22T04:22:42;108.50;;;44.58;;
42124;SDS011;27787;44.594;11.046;2023-02-22T04:25:27;113.85;;;45.00;;
42124;SDS011;27787;44.594;11.046;2023-02-22T04:28:13;115.25;;;46.35;;
42124;SDS011;27787;44.594;11.046;2023-02-22T04:31:07;117.85;;;44.80;;
42124;SDS011;27787;44.594;11.046;2023-02-22T04:33:51;113.03;;;44.92;;
42124;SDS011;27787;44.594;11.046;2023-02-22T04:36:40;117.38;;;47.58;;
42124;SDS011;27787;44.594;11.046;2023-02-22T04:39:28;114.32;;;45.13;;
42124;SDS011;27787;44.594;11.046;2023-02-22T04:42:12;112.47;;;45.28;;
42124;SDS011;27787;44.594;11.046;2023-02-22T04:44:57;112.22;;;45.20;;
42124;SDS011;27787;44.594;11.046;2023-02-22T04:47:42;109.07;;;47.25;;
42124;SDS011;27787;44.594;11.046;2023-02-22T04:50:26;115.25;;;46.50;;
42124;SDS011;27787;44.594;11.046;2023-02-22T04:53:11;121.35;;;46.17;;
42124;SDS011;27787;44.594;11.046;2023-02-22T04:55:56;115.93;;;46.40;;
42124;SDS011;27787;44.594;11.046;2023-02-22T04:58:40;109.70;;;45.85;;
42124;SDS011;27787;44.594;11.046;2023-02-22T05:01:24;118.97;;;47.70;;
42124;SDS011;27787;44.594;11.046;2023-02-22T05:04:08;114.63;;;46.13;;
42124;SDS011;27787;44.594;11.046;2023-02-22T05:06:52;122.20;;;48.05;;
42124;SDS011;27787;44.594;11.046;2023-02-22T05:09:36;111.68;;;47.20;;
42124;SDS011;27787;44.594;11.046;2023-02-22T05:12:21;120.90;;;45.45;;
42124;SDS011;27787;44.594;11.046;2023-02-22T05:15:05;106.95;;;43.40;;
42124;SDS011;27787;44.594;11.046;2023-02-22T05:17:50;112.35;;;44.75;;
42124;SDS011;27787;44.594;11.046;2023-02-22T05:20:35;115.23;;;46.80;;
42124;SDS011;27787;44.594;11.046;2023-02-22T05:23:19;112.57;;;45.35;;
42124;SDS011;27787;44.594;11.046;2023-02-22T05:26:04;108.88;;;45.05;;
42124;SDS011;27787;44.594;11.046;2023-02-22T05:28:49;120.77;;;46.80;;
42124;SDS011;27787;44.594;11.046;2023-02-22T05:31:33;110.65;;;45.25;;
42124;SDS011;27787;44.594;11.046;2023-02-22T05:34:17;111.43;;;45.55;;
42124;SDS011;27787;44.594;11.046;2023-02-22T05:37:01;114.30;;;45.78;;
42124;SDS011;27787;44.594;11.046;2023-02-22T05:39:45;123.27;;;47.00;;
42124;SDS011;27787;44.594;11.046;2023-02-22T05:42:29;112.72;;;44.65;;
42124;SDS011;27787;44.594;11.046;2023-02-22T05:45:14;122.25;;;48.35;;
42124;SDS011;27787;44.594;11.046;2023-02-22T05:47:59;111.57;;;45.88;;
42124;SDS011;27787;44.594;11.046;2023-02-22T05:50:44;108.78;;;45.03;;
42124;SDS011;27787;44.594;11.046;2023-02-22T05:53:29;115.60;;;47.25;;
42124;SDS011;27787;44.594;11.046;2023-02-22T05:56:13;118.97;;;45.80;;
42124;SDS011;27787;44.594;11.046;2023-02-22T05:59:04;117.28;;;47.50;;
42124;SDS011;27787;44.594;11.046;2023-02-22T06:01:48;115.82;;;45.78;;
42124;SDS011;27787;44.594;11.046;2023-02-22T06:04:32;118.03;;;47.95;;
42124;SDS011;27787;44.594;11.046;2023-02-22T06:07:16;117.32;;;47.67;;
42124;SDS011;27787;44.594;11.046;2023-02-22T06:10:01;111.60;;;45.25;;
42124;SDS011;27787;44.594;11.046;2023-02-22T06:12:45;112.57;;;47.38;;
42124;SDS011;27787;44.594;11.046;2023-02-22T06:15:30;121.00;;;45.45;;
42124;SDS011;27787;44.594;11.046;2023-02-22T06:18:15;112.85;;;47.13;;
42124;SDS011;27787;44.594;11.046;2023-02-22T06:20:59;115.22;;;48.63;;
42124;SDS011;27787;44.594;11.046;2023-02-22T06:23:43;115.03;;;47.72;;
42124;SDS011;27787;44.594;11.046;2023-02-22T06:26:28;124.22;;;48.88;;
42124;SDS011;27787;44.594;11.046;2023-02-22T06:29:12;115.18;;;47.22;;
42124;SDS011;27787;44.594;11.046;2023-02-22T06:31:56;118.40;;;47.92;;
42124;SDS011;27787;44.594;11.046;2023-02-22T06:34:40;132.73;;;48.72;;
42124;SDS011;27787;44.594;11.046;2023-02-22T06:37:24;123.53;;;48.65;;
42124;SDS011;27787;44.594;11.046;2023-02-22T06:40:09;124.80;;;47.47;;
42124;SDS011;27787;44.594;11.046;2023-02-22T06:42:55;126.50;;;47.92;;
42124;SDS011;27787;44.594;11.046;2023-02-22T06:45:41;117.13;;;46.90;;
42124;SDS011;27787;44.594;11.046;2023-02-22T06:48:25;123.30;;;48.45;;
42124;SDS011;27787;44.594;11.046;2023-02-22T06:51:09;117.22;;;48.75;;
42124;SDS011;27787;44.594;11.046;2023-02-22T06:53:54;124.32;;;50.15;;
42124;SDS011;27787;44.594;11.046;2023-02-22T06:56:38;116.50;;;47.85;;
42124;SDS011;27787;44.594;11.046;2023-02-22T06:59:22;117.82;;;47.85;;
42124;SDS011;27787;44.594;11.046;2023-02-22T07:02:08;125.45;;;50.90;;
42124;SDS011;27787;44.594;11.046;2023-02-22T07:04:54;113.53;;;47.03;;
42124;SDS011;27787;44.594;11.046;2023-02-22T07:07:39;127.15;;;50.20;;
42124;SDS011;27787;44.594;11.046;2023-02-22T07:10:24;115.72;;;49.47;;
42124;SDS011;27787;44.594;11.046;2023-02-22T07:13:10;121.43;;;47.25;;
42124;SDS011;27787;44.594;11.046;2023-02-22T07:15:55;126.88;;;49.63;;
42124;SDS011;27787;44.594;11.046;2023-02-22T07:18:39;126.45;;;49.83;;
42124;SDS011;27787;44.594;11.046;2023-02-22T07:21:23;127.35;;;50.53;;
42124;SDS011;27787;44.594;11.046;2023-02-22T07:24:07;119.93;;;48.08;;
42124;SDS011;27787;44.594;11.046;2023-02-22T07:26:52;127.40;;;50.67;;
42124;SDS011;27787;44.594;11.046;2023-02-22T07:29:36;126.88;;;48.65;;
42124;SDS011;27787;44.594;11.046;2023-02-22T07:32:21;126.28;;;48.22;;
42124;SDS011;27787;44.594;11.046;2023-02-22T07:35:05;114.63;;;46.05;;
42124;SDS011;27787;44.594;11.046;2023-02-22T07:37:50;123.90;;;48.95;;
42124;SDS011;27787;44.594;11.046;2023-02-22T07:40:37;130.55;;;50.72;;
42124;SDS011;27787;44.594;11.046;2023-02-22T07:43:23;121.35;;;50.28;;
42124;SDS011;27787;44.594;11.046;2023-02-22T07:46:10;124.57;;;47.70;;
42124;SDS011;27787;44.594;11.046;2023-02-22T07:48:55;120.05;;;48.53;;
42124;SDS011;27787;44.594;11.046;2023-02-22T07:51:39;120.88;;;49.80;;
42124;SDS011;27787;44.594;11.046;2023-02-22T07:54:23;125.15;;;48.17;;
42124;SDS011;27787;44.594;11.046;2023-02-22T07:57:07;115.00;;;49.35;;
42124;SDS011;27787;44.594;11.046;2023-02-22T07:59:51;120.28;;;48.08;;
42124;SDS011;27787;44.594;11.046;2023-02-22T08:02:35;118.10;;;48.70;;
42124;SDS011;27787;44.594;11.046;2023-02-22T08:05:20;123.30;;;47.75;;
42124;SDS011;27787;44.594;11.046;2023-02-22T08:08:06;114.03;;;44.58;;
42124;SDS011;27787;44.594;11.046;2023-02-22T08:10:51;119.20;;;48.17;;
42124;SDS011;27787;44.594;11.046;2023-02-22T08:13:35;110.90;;;47.80;;
42124;SDS011;27787;44.594;11.046;2023-02-22T08:16:22;121.70;;;47.03;;
42124;SDS011;27787;44.594;11.046;2023-02-22T08:19:06;122.88;;;49.25;;
42124;SDS011;27787;44.594;11.046;2023-02-22T08:21:50;119.43;;;49.88;;
42124;SDS011;27787;44.594;11.046;2023-02-22T08:24:34;123.20;;;49.53;;
42124;SDS011;27787;44.594;11.046;2023-02-22T08:27:22;119.90;;;49.75;;
42124;SDS011;27787;44.594;11.046;2023-02-22T08:30:15;129.65;;;50.80;;
42124;SDS011;27787;44.594;11.046;2023-02-22T08:33:02;118.00;;;47.15;;
42124;SDS011;27787;44.594;11.046;2023-02-22T08:35:47;119.05;;;48.33;;
42124;SDS011;27787;44.594;11.046;2023-02-22T08:38:32;128.18;;;49.63;;
42124;SDS011;27787;44.594;11.046;2023-02-22T08:41:17;116.78;;;49.25;;
42124;SDS011;27787;44.594;11.046;2023-02-22T08:44:02;117.13;;;48.88;;
42124;SDS011;27787;44.594;11.046;2023-02-22T08:46:46;125.30;;;47.92;;
42124;SDS011;27787;44.594;11.046;2023-02-22T08:49:31;120.50;;;46.75;;
42124;SDS011;27787;44.594;11.046;2023-02-22T08:52:16;116.63;;;48.90;;
42124;SDS011;27787;44.594;11.046;2023-02-22T08:55:00;118.32;;;48.45;;
42124;SDS011;27787;44.594;11.046;2023-02-22T08:57:45;122.05;;;51.90;;
42124;SDS011;27787;44.594;11.046;2023-02-22T09:00:29;122.95;;;49.97;;
42124;SDS011;27787;44.594;11.046;2023-02-22T09:03:18;124.60;;;49.03;;
42124;SDS011;27787;44.594;11.046;2023-02-22T09:06:03;123.53;;;50.05;;
42124;SDS011;27787;44.594;11.046;2023-02-22T09:08:47;123.03;;;47.93;;
42124;SDS011;27787;44.594;11.046;2023-02-22T09:11:32;117.97;;;47.28;;
42124;SDS011;27787;44.594;11.046;2023-02-22T09:14:16;123.95;;;48.15;;
42124;SDS011;27787;44.594;11.046;2023-02-22T09:17:00;116.82;;;49.38;;
42124;SDS011;27787;44.594;11.046;2023-02-22T09:19:44;110.28;;;47.90;;
42124;SDS011;27787;44.594;11.046;2023-02-22T09:22:28;121.22;;;48.05;;
42124;SDS011;27787;44.594;11.046;2023-02-22T09:25:13;124.65;;;49.40;;
42124;SDS011;27787;44.594;11.046;2023-02-22T09:27:58;115.38;;;47.65;;
42124;SDS011;27787;44.594;11.046;2023-02-22T09:30:43;121.63;;;49.67;;
42124;SDS011;27787;44.594;11.046;2023-02-22T09:33:28;124.90;;;49.15;;
42124;SDS011;27787;44.594;11.046;2023-02-22T09:36:13;132.40;;;49.95;;
42124;SDS011;27787;44.594;11.046;2023-02-22T09:38:57;119.68;;;48.28;;
42124;SDS011;27787;44.594;11.046;2023-02-22T09:50:39;109.68;;;47.10;;
42124;SDS011;27787;44.594;11.046;2023-02-22T09:53:28;117.47;;;49.10;;
42124;SDS011;27787;44.594;11.046;2023-02-22T09:56:18;120.50;;;49.45;;
42124;SDS011;27787;44.594;11.046;2023-02-22T09:59:04;121.30;;;50.63;;
42124;SDS011;27787;44.594;11.046;2023-02-22T10:01:54;124.38;;;50.83;;
42124;SDS011;27787;44.594;11.046;2023-02-22T10:04:46;123.10;;;50.60;;
42124;SDS011;27787;44.594;11.046;2023-02-22T10:07:45;117.43;;;52.53;;
42124;SDS011;27787;44.594;11.046;2023-02-22T10:10:35;123.72;;;49.53;;
42124;SDS011;27787;44.594;11.046;2023-02-22T10:13:31;134.57;;;50.65;;
42124;SDS011;27787;44.594;11.046;2023-02-22T10:16:31;120.07;;;49.83;;
42124;SDS011;27787;44.594;11.046;2023-02-22T10:19:30;116.93;;;47.97;;
42124;SDS011;27787;44.594;11.046;2023-02-22T10:25:28;113.28;;;47.30;;
42124;SDS011;27787;44.594;11.046;2023-02-22T10:28:19;114.05;;;48.13;;
42124;SDS011;27787;44.594;11.046;2023-02-22T10:31:07;107.55;;;47.13;;
42124;SDS011;27787;44.594;11.046;2023-02-22T10:34:02;117.07;;;48.58;;
42124;SDS011;27787;44.594;11.046;2023-02-22T10:36:48;109.97;;;46.67;;
42124;SDS011;27787;44.594;11.046;2023-02-22T10:39:38;118.82;;;48.67;;
42124;SDS011;27787;44.594;11.046;2023-02-22T10:42:24;118.53;;;50.20;;
42124;SDS011;27787;44.594;11.046;2023-02-22T10:48:08;122.30;;;48.08;;
42124;SDS011;27787;44.594;11.046;2023-02-22T10:50:59;114.75;;;48.78;;
42124;SDS011;27787;44.594;11.046;2023-02-22T10:53:45;114.80;;;48.45;;
42124;SDS011;27787;44.594;11.046;2023-02-22T10:56:47;113.25;;;47.88;;
42124;SDS011;27787;44.594;11.046;2023-02-22T10:59:34;119.72;;;49.88;;
42124;SDS011;27787;44.594;11.046;2023-02-22T11:02:22;118.47;;;51.08;;
42124;SDS011;27787;44.594;11.046;2023-02-22T11:05:24;117.53;;;46.72;;
42124;SDS011;27787;44.594;11.046;2023-02-22T11:08:21;123.78;;;51.33;;
42124;SDS011;27787;44.594;11.046;2023-02-22T11:11:20;115.28;;;48.53;;
42124;SDS011;27787;44.594;11.046;2023-02-22T11:14:07;107.82;;;47.78;;
42124;SDS011;27787;44.594;11.046;2023-02-22T11:16:53;110.60;;;48.88;;
42124;SDS011;27787;44.594;11.046;2023-02-22T11:19:44;110.53;;;46.20;;
42124;SDS011;27787;44.594;11.046;2023-02-22T11:22:31;117.78;;;48.28;;
42124;SDS011;27787;44.594;11.046;2023-02-22T11:25:35;119.63;;;47.85;;
42124;SDS011;27787;44.594;11.046;2023-02-22T11:28:24;117.85;;;51.15;;
42124;SDS011;27787;44.594;11.046;2023-02-22T11:31:17;114.55;;;48.85;;
42124;SDS011;27787;44.594;11.046;2023-02-22T11:34:26;109.93;;;44.00;;
42124;SDS011;27787;44.594;11.046;2023-02-22T11:37:32;118.40;;;46.55;;
42124;SDS011;27787;44.594;11.046;2023-02-22T11:40:20;108.32;;;47.80;;
42124;SDS011;27787;44.594;11.046;2023-02-22T11:43:12;115.85;;;45.35;;
42124;SDS011;27787;44.594;11.046;2023-02-22T11:46:01;105.10;;;45.67;;
42124;SDS011;27787;44.594;11.046;2023-02-22T11:48:55;105.20;;;45.47;;
42124;SDS011;27787;44.594;11.046;2023-02-22T11:55:16;105.38;;;44.95;;
42124;SDS011;27787;44.594;11.046;2023-02-22T12:10:04;103.63;;;44.92;;
42124;SDS011;27787;44.594;11.046;2023-02-22T12:16:20;103.70;;;45.22;;
42124;SDS011;27787;44.594;11.046;2023-02-22T12:22:04;118.18;;;45.08;;
42124;SDS011;27787;44.594;11.046;2023-02-22T12:28:00;105.25;;;44.38;;
42124;SDS011;27787;44.594;11.046;2023-02-22T12:30:58;104.03;;;46.60;;
42124;SDS011;27787;44.594;11.046;2023-02-22T12:33:58;124.28;;;48.13;;
42124;SDS011;27787;44.594;11.046;2023-02-22T12:36:51;109.80;;;44.78;;
42124;SDS011;27787;44.594;11.046;2023-02-22T13:00:39;96.53;;;41.63;;
42124;SDS011;27787;44.594;11.046;2023-02-22T13:06:35;95.75;;;42.17;;
42124;SDS011;27787;44.594;11.046;2023-02-22T13:12:23;101.05;;;43.50;;
42124;SDS011;27787;44.594;11.046;2023-02-22T13:21:48;106.35;;;42.90;;
42124;SDS011;27787;44.594;11.046;2023-02-22T13:27:58;99.20;;;41.00;;
42124;SDS011;27787;44.594;11.046;2023-02-22T13:37:32;90.05;;;39.78;;
42124;SDS011;27787;44.594;11.046;2023-02-22T13:46:46;104.97;;;42.83;;
42124;SDS011;27787;44.594;11.046;2023-02-22T13:49:42;99.65;;;40.95;;
42124;SDS011;27787;44.594;11.046;2023-02-22T13:52:36;92.13;;;38.75;;
42124;SDS011;27787;44.594;11.046;2023-02-22T13:55:25;94.60;;;40.58;;
42124;SDS011;27787;44.594;11.046;2023-02-22T13:58:15;93.90;;;41.20;;
42124;SDS011;27787;44.594;11.046;2023-02-22T14:00:59;100.13;;;41.92;;
42124;SDS011;27787;44.594;11.046;2023-02-22T14:03:44;93.97;;;40.28;;
42124;SDS011;27787;44.594;11.046;2023-02-22T14:06:36;91.97;;;38.78;;
42124;SDS011;27787;44.594;11.046;2023-02-22T14:15:12;84.68;;;35.28;;
42124;SDS011;27787;44.594;11.046;2023-02-22T14:18:00;90.07;;;38.55;;
42124;SDS011;27787;44.594;11.046;2023-02-22T14:20:59;97.90;;;40.08;;
42124;SDS011;27787;44.594;11.046;2023-02-22T14:23:55;95.13;;;40.03;;
42124;SDS011;27787;44.594;11.046;2023-02-22T14:26:55;94.93;;;41.28;;
42124;SDS011;27787;44.594;11.046;2023-02-22T14:29:56;100.47;;;43.63;;
42124;SDS011;27787;44.594;11.046;2023-02-22T14:32:43;98.85;;;42.13;;
42124;SDS011;27787;44.594;11.046;2023-02-22T14:35:29;102.00;;;43.08;;
42124;SDS011;27787;44.594;11.046;2023-02-22T14:38:20;99.30;;;43.10;;
42124;SDS011;27787;44.594;11.046;2023-02-22T14:41:05;97.90;;;42.78;;
42124;SDS011;27787;44.594;11.046;2023-02-22T14:43:52;104.20;;;43.35;;
42124;SDS011;27787;44.594;11.046;2023-02-22T14:46:39;105.65;;;45.13;;
42124;SDS011;27787;44.594;11.046;2023-02-22T14:49:26;105.13;;;43.53;;
42124;SDS011;27787;44.594;11.046;2023-02-22T14:52:33;104.65;;;43.78;;
42124;SDS011;27787;44.594;11.046;2023-02-22T14:55:22;111.63;;;42.90;;
42124;SDS011;27787;44.594;11.046;2023-02-22T15:01:14;96.00;;;40.42;;
42124;SDS011;27787;44.594;11.046;2023-02-22T15:04:22;91.03;;;38.72;;
42124;SDS011;27787;44.594;11.046;2023-02-22T15:13:13;86.32;;;38.70;;
42124;SDS011;27787;44.594;11.046;2023-02-22T15:16:02;102.15;;;41.88;;
42124;SDS011;27787;44.594;11.046;2023-02-22T15:18:57;99.50;;;43.00;;
42124;SDS011;27787;44.594;11.046;2023-02-22T15:21:46;90.65;;;42.95;;
42124;SDS011;27787;44.594;11.046;2023-02-22T15:24:32;91.57;;;42.35;;
42124;SDS011;27787;44.594;11.046;2023-02-22T15:27:19;98.07;;;42.42;;
42124;SDS011;27787;44.594;11.046;2023-02-22T15:30:04;105.70;;;44.10;;
42124;SDS011;27787;44.594;11.046;2023-02-22T15:33:17;99.40;;;42.70;;
42124;SDS011;27787;44.594;11.046;2023-02-22T15:36:10;96.50;;;43.80;;
42124;SDS011;27787;44.594;11.046;2023-02-22T15:38:57;98.13;;;42.22;;
42124;SDS011;27787;44.594;11.046;2023-02-22T15:41:41;102.50;;;45.03;;
42124;SDS011;27787;44.594;11.046;2023-02-22T15:44:25;108.80;;;46.05;;
42124;SDS011;27787;44.594;11.046;2023-02-22T15:47:19;104.30;;;45.33;;
42124;SDS011;27787;44.594;11.046;2023-02-22T15:56:09;101.00;;;43.50;;
42124;SDS011;27787;44.594;11.046;2023-02-22T15:58:58;105.63;;;44.38;;
42124;SDS011;27787;44.594;11.046;2023-02-22T16:01:47;106.95;;;46.22;;
42124;SDS011;27787;44.594;11.046;2023-02-22T16:04:34;111.28;;;47.28;;
42124;SDS011;27787;44.594;11.046;2023-02-22T16:07:21;101.70;;;44.25;;
42124;SDS011;27787;44.594;11.046;2023-02-22T16:10:05;97.07;;;42.20;;
42124;SDS011;27787;44.594;11.046;2023-02-22T16:22:21;95.65;;;41.35;;
42124;SDS011;27787;44.594;11.046;2023-02-22T16:28:23;91.97;;;39.72;;
42124;SDS011;27787;44.594;11.046;2023-02-22T16:31:09;108.45;;;41.45;;
42124;SDS011;27787;44.594;11.046;2023-02-22T16:33:53;98.25;;;42.70;;
42124;SDS011;27787;44.594;11.046;2023-02-22T16:36:42;98.10;;;41.30;;
42124;SDS011;27787;44.594;11.046;2023-02-22T16:39:28;100.40;;;41.45;;
42124;SDS011;27787;44.594;11.046;2023-02-22T16:42:14;87.85;;;40.67;;
42124;SDS011;27787;44.594;11.046;2023-02-22T16:45:04;98.78;;;40.55;;
42124;SDS011;27787;44.594;11.046;2023-02-22T16:47:49;97.28;;;40.63;;
42124;SDS011;27787;44.594;11.046;2023-02-22T16:50:36;89.30;;;38.55;;
42124;SDS011;27787;44.594;11.046;2023-02-22T16:53:22;93.45;;;40.42;;
42124;SDS011;27787;44.594;11.046;2023-02-22T16:56:08;100.38;;;42.47;;
42124;SDS011;27787;44.594;11.046;2023-02-22T16:58:54;93.70;;;40.67;;
42124;SDS011;27787;44.594;11.046;2023-02-22T17:01:40;92.00;;;42.33;;
42124;SDS011;27787;44.594;11.046;2023-02-22T17:04:25;90.60;;;41.03;;
42124;SDS011;27787;44.594;11.046;2023-02-22T17:07:11;99.75;;;42.42;;
42124;SDS011;27787;44.594;11.046;2023-02-22T17:09:55;100.07;;;40.35;;
42124;SDS011;27787;44.594;11.046;2023-02-22T17:12:44;109.55;;;44.50;;
42124;SDS011;27787;44.594;11.046;2023-02-22T17:15:31;106.53;;;46.20;;
42124;SDS011;27787;44.594;11.046;2023-02-22T17:18:18;114.95;;;45.50;;
42124;SDS011;27787;44.594;11.046;2023-02-22T17:21:05;101.25;;;42.25;;
42124;SDS011;27787;44.594;11.046;2023-02-22T17:23:49;95.75;;;43.28;;
42124;SDS011;27787;44.594;11.046;2023-02-22T17:26:33;103.57;;;43.42;;
42124;SDS011;27787;44.594;11.046;2023-02-22T17:29:18;102.03;;;43.15;;
42124;SDS011;27787;44.594;11.046;2023-02-22T17:32:03;104.00;;;45.13;;
42124;SDS011;27787;44.594;11.046;2023-02-22T17:34:47;104.57;;;45.88;;
42124;SDS011;27787;44.594;11.046;2023-02-22T17:37:32;103.38;;;44.55;;
42124;SDS011;27787;44.594;11.046;2023-02-22T17:40:16;99.13;;;42.92;;
42124;SDS011;27787;44.594;11.046;2023-02-22T17:43:01;107.97;;;45.35;;
42124;SDS011;27787;44.594;11.046;2023-02-22T17:45:45;106.55;;;45.35;;
42124;SDS011;27787;44.594;11.046;2023-02-22T17:48:30;114.40;;;47.45;;
42124;SDS011;27787;44.594;11.046;2023-02-22T17:51:14;99.35;;;45.08;;
42124;SDS011;27787;44.594;11.046;2023-02-22T17:53:58;111.10;;;45.60;;
42124;SDS011;27787;44.594;11.046;2023-02-22T17:56:43;111.95;;;44.55;;
42124;SDS011;27787;44.594;11.046;2023-02-22T17:59:27;98.40;;;44.25;;
42124;SDS011;27787;44.594;11.046;2023-02-22T18:02:11;113.50;;;46.47;;
42124;SDS011;27787;44.594;11.046;2023-02-22T18:04:56;113.15;;;45.72;;
42124;SDS011;27787;44.594;11.046;2023-02-22T18:07:41;104.97;;;45.08;;
42124;SDS011;27787;44.594;11.046;2023-02-22T18:10:25;103.90;;;46.00;;
42124;SDS011;27787;44.594;11.046;2023-02-22T18:13:13;110.10;;;46.05;;
42124;SDS011;27787;44.594;11.046;2023-02-22T18:16:02;112.75;;;47.03;;
42124;SDS011;27787;44.594;11.046;2023-02-22T18:18:48;117.63;;;48.88;;
42124;SDS011;27787;44.594;11.046;2023-02-22T18:21:32;116.95;;;49.05;;
42124;SDS011;27787;44.594;11.046;2023-02-22T18:24:16;115.07;;;47.55;;
42124;SDS011;27787;44.594;11.046;2023-02-22T18:27:01;124.53;;;50.47;;
42124;SDS011;27787;44.594;11.046;2023-02-22T18:29:48;114.00;;;47.25;;
42124;SDS011;27787;44.594;11.046;2023-02-22T18:32:33;118.00;;;46.85;;
42124;SDS011;27787;44.594;11.046;2023-02-22T18:35:17;119.78;;;46.00;;